sensor_id;sensor_type;location;lat;lon;timestamp;temperature;humidity
8565;DHT22;4320;51.498;6.556;2022-10-20T00:01:06;11.70;99.90
8565;DHT22;4320;51.498;6.556;2022-10-20T00:03:37;11.60;99.90
8565;DHT22;4320;51.498;6.556;2022-10-20T00:06:08;11.50;99.90
8565;DHT22;4320;51.498;6.556;2022-10-20T00:08:34;11.40;99.90
8565;DHT22;4320;51.498;6.556;2022-10-20T00:11:00;11.40;99.90
8565;DHT22;4320;51.498;6.556;2022-10-20T00:13:26;11.30;99.90
8565;DHT22;4320;51.498;6.556;2022-10-20T00:15:53;11.30;99.90
8565;DHT22;4320;51.498;6.556;2022-10-20T00:18:20;11.30;99.90
8565;DHT22;4320;51.498;6.556;2022-10-20T00:20:46;11.20;99.90
8565;DHT22;4320;51.498;6.556;2022-10-20T00:23:12;11.20;99.90
8565;DHT22;4320;51.498;6.556;2022-10-20T00:25:38;11.20;99.90
8565;DHT22;4320;51.498;6.556;2022-10-20T00:28:04;11.30;99.90
8565;DHT22;4320;51.498;6.556;2022-10-20T00:30:30;11.20;99.90
8565;DHT22;4320;51.498;6.556;2022-10-20T00:32:56;11.20;99.90
8565;DHT22;4320;51.498;6.556;2022-10-20T00:35:21;11.20;99.90
8565;DHT22;4320;51.498;6.556;2022-10-20T00:37:47;11.10;99.90
8565;DHT22;4320;51.498;6.556;2022-10-20T00:40:13;11.10;99.90
8565;DHT22;4320;51.498;6.556;2022-10-20T00:42:43;11.20;99.90
8565;DHT22;4320;51.498;6.556;2022-10-20T00:45:18;11.20;99.90
8565;DHT22;4320;51.498;6.556;2022-10-20T00:47:48;11.10;99.90
8565;DHT22;4320;51.498;6.556;2022-10-20T00:50:26;11.10;99.90
8565;DHT22;4320;51.498;6.556;2022-10-20T00:52:55;11.10;99.90
8565;DHT22;4320;51.498;6.556;2022-10-20T00:55:41;11.10;99.90
8565;DHT22;4320;51.498;6.556;2022-10-20T00:58:08;11.00;99.90
8565;DHT22;4320;51.498;6.556;2022-10-20T01:00:36;11.10;99.90
8565;DHT22;4320;51.498;6.556;2022-10-20T01:03:03;11.00;99.90
8565;DHT22;4320;51.498;6.556;2022-10-20T01:05:30;11.00;99.90
8565;DHT22;4320;51.498;6.556;2022-10-20T01:07:56;11.00;99.90
8565;DHT22;4320;51.498;6.556;2022-10-20T01:10:24;11.00;99.90
8565;DHT22;4320;51.498;6.556;2022-10-20T01:13:13;11.00;99.90
8565;DHT22;4320;51.498;6.556;2022-10-20T01:16:00;11.10;99.90
8565;DHT22;4320;51.498;6.556;2022-10-20T01:27:22;11.00;99.90
8565;DHT22;4320;51.498;6.556;2022-10-20T01:30:20;11.00;99.90
8565;DHT22;4320;51.498;6.556;2022-10-20T01:35:50;11.00;99.90
8565;DHT22;4320;51.498;6.556;2022-10-20T01:38:36;11.00;99.90
8565;DHT22;4320;51.498;6.556;2022-10-20T01:41:14;11.10;99.90
8565;DHT22;4320;51.498;6.556;2022-10-20T01:43:42;11.10;99.90
8565;DHT22;4320;51.498;6.556;2022-10-20T01:46:09;10.90;99.90
8565;DHT22;4320;51.498;6.556;2022-10-20T01:48:36;10.90;99.90
8565;DHT22;4320;51.498;6.556;2022-10-20T01:51:05;10.90;99.90
8565;DHT22;4320;51.498;6.556;2022-10-20T01:53:31;10.90;99.90
8565;DHT22;4320;51.498;6.556;2022-10-20T01:55:58;11.00;99.90
8565;DHT22;4320;51.498;6.556;2022-10-20T02:00:57;10.90;99.90
8565;DHT22;4320;51.498;6.556;2022-10-20T02:09:07;10.70;99.90
8565;DHT22;4320;51.498;6.556;2022-10-20T02:14:13;10.70;99.90
8565;DHT22;4320;51.498;6.556;2022-10-20T02:16:44;10.70;99.90
8565;DHT22;4320;51.498;6.556;2022-10-20T02:19:12;10.80;99.90
8565;DHT22;4320;51.498;6.556;2022-10-20T02:21:39;10.80;99.90
8565;DHT22;4320;51.498;6.556;2022-10-20T02:24:07;10.90;99.90
8565;DHT22;4320;51.498;6.556;2022-10-20T02:26:35;10.90;99.90
8565;DHT22;4320;51.498;6.556;2022-10-20T02:29:09;10.90;99.90
8565;DHT22;4320;51.498;6.556;2022-10-20T02:31:37;11.00;99.90
8565;DHT22;4320;51.498;6.556;2022-10-20T02:34:03;11.00;99.90
8565;DHT22;4320;51.498;6.556;2022-10-20T02:36:29;11.00;99.90
8565;DHT22;4320;51.498;6.556;2022-10-20T02:38:55;11.10;99.90
8565;DHT22;4320;51.498;6.556;2022-10-20T02:41:21;11.00;99.90
8565;DHT22;4320;51.498;6.556;2022-10-20T02:43:47;10.90;99.90
8565;DHT22;4320;51.498;6.556;2022-10-20T02:46:12;10.80;99.90
8565;DHT22;4320;51.498;6.556;2022-10-20T02:48:38;10.80;99.90
8565;DHT22;4320;51.498;6.556;2022-10-20T02:51:06;10.90;99.90
8565;DHT22;4320;51.498;6.556;2022-10-20T02:53:32;10.80;99.90
8565;DHT22;4320;51.498;6.556;2022-10-20T02:55:58;10.80;99.90
8565;DHT22;4320;51.498;6.556;2022-10-20T02:58:24;10.80;99.90
8565;DHT22;4320;51.498;6.556;2022-10-20T03:00:50;10.80;99.90
8565;DHT22;4320;51.498;6.556;2022-10-20T03:03:17;10.80;99.90
8565;DHT22;4320;51.498;6.556;2022-10-20T03:05:43;10.80;99.90
8565;DHT22;4320;51.498;6.556;2022-10-20T03:08:10;10.80;99.90
8565;DHT22;4320;51.498;6.556;2022-10-20T03:10:36;10.80;99.90
8565;DHT22;4320;51.498;6.556;2022-10-20T03:13:03;10.90;99.90
8565;DHT22;4320;51.498;6.556;2022-10-20T03:15:29;10.90;99.90
8565;DHT22;4320;51.498;6.556;2022-10-20T03:17:55;10.90;99.90
8565;DHT22;4320;51.498;6.556;2022-10-20T03:20:20;10.90;99.90
8565;DHT22;4320;51.498;6.556;2022-10-20T03:22:46;10.90;99.90
8565;DHT22;4320;51.498;6.556;2022-10-20T03:25:12;10.90;99.90
8565;DHT22;4320;51.498;6.556;2022-10-20T03:27:37;10.90;99.90
8565;DHT22;4320;51.498;6.556;2022-10-20T03:30:03;10.90;99.90
8565;DHT22;4320;51.498;6.556;2022-10-20T03:32:29;10.90;99.90
8565;DHT22;4320;51.498;6.556;2022-10-20T03:34:54;10.90;99.90
8565;DHT22;4320;51.498;6.556;2022-10-20T03:37:53;10.90;99.90
8565;DHT22;4320;51.498;6.556;2022-10-20T03:40:12;10.90;99.90
8565;DHT22;4320;51.498;6.556;2022-10-20T03:42:38;10.90;99.90
8565;DHT22;4320;51.498;6.556;2022-10-20T03:45:04;10.90;99.90
8565;DHT22;4320;51.498;6.556;2022-10-20T03:47:29;10.80;99.90
8565;DHT22;4320;51.498;6.556;2022-10-20T03:49:55;10.80;99.90
8565;DHT22;4320;51.498;6.556;2022-10-20T03:52:21;10.80;99.90
8565;DHT22;4320;51.498;6.556;2022-10-20T03:54:46;10.80;99.90
8565;DHT22;4320;51.498;6.556;2022-10-20T03:57:12;10.80;99.90
8565;DHT22;4320;51.498;6.556;2022-10-20T03:59:38;10.80;99.90
8565;DHT22;4320;51.498;6.556;2022-10-20T04:02:04;10.80;99.90
8565;DHT22;4320;51.498;6.556;2022-10-20T04:04:29;10.80;99.90
8565;DHT22;4320;51.498;6.556;2022-10-20T04:06:55;10.90;99.90
8565;DHT22;4320;51.498;6.556;2022-10-20T04:09:20;10.90;99.90
8565;DHT22;4320;51.498;6.556;2022-10-20T04:11:46;10.90;99.90
8565;DHT22;4320;51.498;6.556;2022-10-20T04:14:12;10.90;99.90
8565;DHT22;4320;51.498;6.556;2022-10-20T04:16:37;10.90;99.90
8565;DHT22;4320;51.498;6.556;2022-10-20T04:19:03;10.90;99.90
8565;DHT22;4320;51.498;6.556;2022-10-20T04:21:29;11.00;99.90
8565;DHT22;4320;51.498;6.556;2022-10-20T04:23:54;11.00;99.90
8565;DHT22;4320;51.498;6.556;2022-10-20T04:26:20;10.90;99.90
8565;DHT22;4320;51.498;6.556;2022-10-20T04:28:45;11.00;99.90
8565;DHT22;4320;51.498;6.556;2022-10-20T04:31:11;11.00;99.90
8565;DHT22;4320;51.498;6.556;2022-10-20T04:33:37;11.00;99.90
8565;DHT22;4320;51.498;6.556;2022-10-20T04:36:09;11.00;99.90
8565;DHT22;4320;51.498;6.556;2022-10-20T04:38:35;11.00;99.90
8565;DHT22;4320;51.498;6.556;2022-10-20T04:41:02;10.90;99.90
8565;DHT22;4320;51.498;6.556;2022-10-20T04:43:29;10.90;99.90
8565;DHT22;4320;51.498;6.556;2022-10-20T04:45:59;10.90;99.90
8565;DHT22;4320;51.498;6.556;2022-10-20T04:48:25;10.90;99.90
8565;DHT22;4320;51.498;6.556;2022-10-20T04:51:11;10.90;99.90
8565;DHT22;4320;51.498;6.556;2022-10-20T04:53:37;10.90;99.90
8565;DHT22;4320;51.498;6.556;2022-10-20T04:56:05;11.00;99.90
8565;DHT22;4320;51.498;6.556;2022-10-20T04:58:31;11.00;99.90
8565;DHT22;4320;51.498;6.556;2022-10-20T05:01:02;11.00;99.90
8565;DHT22;4320;51.498;6.556;2022-10-20T05:03:28;11.00;99.90
8565;DHT22;4320;51.498;6.556;2022-10-20T05:05:53;10.90;99.90
8565;DHT22;4320;51.498;6.556;2022-10-20T05:08:19;10.90;99.90
8565;DHT22;4320;51.498;6.556;2022-10-20T05:10:45;10.90;99.90
8565;DHT22;4320;51.498;6.556;2022-10-20T05:13:10;11.00;99.90
8565;DHT22;4320;51.498;6.556;2022-10-20T05:15:36;11.00;99.90
8565;DHT22;4320;51.498;6.556;2022-10-20T05:18:01;11.00;99.90
8565;DHT22;4320;51.498;6.556;2022-10-20T05:20:27;11.10;99.90
8565;DHT22;4320;51.498;6.556;2022-10-20T05:22:53;11.10;99.90
8565;DHT22;4320;51.498;6.556;2022-10-20T05:25:18;11.10;99.90
8565;DHT22;4320;51.498;6.556;2022-10-20T05:27:44;11.10;99.90
8565;DHT22;4320;51.498;6.556;2022-10-20T05:30:10;11.20;99.90
8565;DHT22;4320;51.498;6.556;2022-10-20T05:32:35;11.20;99.90
8565;DHT22;4320;51.498;6.556;2022-10-20T05:35:01;11.20;99.90
8565;DHT22;4320;51.498;6.556;2022-10-20T05:37:27;11.20;99.90
8565;DHT22;4320;51.498;6.556;2022-10-20T05:39:52;11.20;99.90
8565;DHT22;4320;51.498;6.556;2022-10-20T05:42:18;11.10;99.90
8565;DHT22;4320;51.498;6.556;2022-10-20T05:44:43;11.10;99.90
8565;DHT22;4320;51.498;6.556;2022-10-20T05:47:09;11.00;99.90
8565;DHT22;4320;51.498;6.556;2022-10-20T05:49:34;11.00;99.90
8565;DHT22;4320;51.498;6.556;2022-10-20T05:52:00;10.90;99.90
8565;DHT22;4320;51.498;6.556;2022-10-20T05:54:26;11.00;99.90
8565;DHT22;4320;51.498;6.556;2022-10-20T05:56:51;11.00;99.90
8565;DHT22;4320;51.498;6.556;2022-10-20T05:59:17;11.00;99.90
8565;DHT22;4320;51.498;6.556;2022-10-20T06:01:42;10.90;99.90
8565;DHT22;4320;51.498;6.556;2022-10-20T06:04:22;10.90;99.90
8565;DHT22;4320;51.498;6.556;2022-10-20T06:06:49;10.90;99.90
8565;DHT22;4320;51.498;6.556;2022-10-20T06:09:15;11.00;99.90
8565;DHT22;4320;51.498;6.556;2022-10-20T06:11:41;10.90;99.90
8565;DHT22;4320;51.498;6.556;2022-10-20T06:14:08;11.00;1.00
8565;DHT22;4320;51.498;6.556;2022-10-20T06:16:33;11.10;1.00
8565;DHT22;4320;51.498;6.556;2022-10-20T06:19:00;11.10;1.00
8565;DHT22;4320;51.498;6.556;2022-10-20T06:21:30;11.20;1.00
8565;DHT22;4320;51.498;6.556;2022-10-20T06:24:00;11.30;1.00
8565;DHT22;4320;51.498;6.556;2022-10-20T06:26:27;11.30;1.00
8565;DHT22;4320;51.498;6.556;2022-10-20T06:29:02;11.40;1.00
8565;DHT22;4320;51.498;6.556;2022-10-20T06:31:32;11.40;1.00
8565;DHT22;4320;51.498;6.556;2022-10-20T06:33:58;11.40;1.00
8565;DHT22;4320;51.498;6.556;2022-10-20T06:36:25;11.50;1.00
8565;DHT22;4320;51.498;6.556;2022-10-20T06:38:58;11.50;1.00
8565;DHT22;4320;51.498;6.556;2022-10-20T06:41:25;11.60;1.00
8565;DHT22;4320;51.498;6.556;2022-10-20T06:43:52;11.70;1.00
8565;DHT22;4320;51.498;6.556;2022-10-20T06:46:29;11.80;1.00
8565;DHT22;4320;51.498;6.556;2022-10-20T06:48:57;11.90;1.00
8565;DHT22;4320;51.498;6.556;2022-10-20T06:51:23;12.00;1.00
8565;DHT22;4320;51.498;6.556;2022-10-20T06:53:50;12.20;1.00
8565;DHT22;4320;51.498;6.556;2022-10-20T06:56:21;12.40;1.00
8565;DHT22;4320;51.498;6.556;2022-10-20T06:58:52;12.60;99.90
8565;DHT22;4320;51.498;6.556;2022-10-20T07:01:21;12.70;99.90
8565;DHT22;4320;51.498;6.556;2022-10-20T07:03:51;12.90;99.90
8565;DHT22;4320;51.498;6.556;2022-10-20T07:06:22;13.00;99.90
8565;DHT22;4320;51.498;6.556;2022-10-20T07:08:48;13.10;99.90
8565;DHT22;4320;51.498;6.556;2022-10-20T07:11:19;13.20;99.90
8565;DHT22;4320;51.498;6.556;2022-10-20T07:13:46;13.20;99.90
8565;DHT22;4320;51.498;6.556;2022-10-20T07:16:15;13.30;99.90
8565;DHT22;4320;51.498;6.556;2022-10-20T07:18:42;13.40;99.90
8565;DHT22;4320;51.498;6.556;2022-10-20T07:21:17;13.40;99.90
8565;DHT22;4320;51.498;6.556;2022-10-20T07:23:44;13.40;99.90
8565;DHT22;4320;51.498;6.556;2022-10-20T07:26:18;13.50;99.90
8565;DHT22;4320;51.498;6.556;2022-10-20T07:28:47;13.50;99.90
8565;DHT22;4320;51.498;6.556;2022-10-20T07:31:16;13.60;99.90
8565;DHT22;4320;51.498;6.556;2022-10-20T07:33:42;13.70;99.90
8565;DHT22;4320;51.498;6.556;2022-10-20T07:36:34;13.70;99.90
8565;DHT22;4320;51.498;6.556;2022-10-20T07:39:00;13.80;99.90
8565;DHT22;4320;51.498;6.556;2022-10-20T07:41:26;13.80;99.90
8565;DHT22;4320;51.498;6.556;2022-10-20T07:43:53;13.80;99.90
8565;DHT22;4320;51.498;6.556;2022-10-20T07:46:19;13.90;99.90
8565;DHT22;4320;51.498;6.556;2022-10-20T07:48:45;13.90;99.90
8565;DHT22;4320;51.498;6.556;2022-10-20T07:51:23;13.90;99.90
8565;DHT22;4320;51.498;6.556;2022-10-20T07:53:50;14.00;99.90
8565;DHT22;4320;51.498;6.556;2022-10-20T07:56:16;14.00;99.90
8565;DHT22;4320;51.498;6.556;2022-10-20T07:58:42;14.00;99.90
8565;DHT22;4320;51.498;6.556;2022-10-20T08:01:09;14.00;99.90
8565;DHT22;4320;51.498;6.556;2022-10-20T08:03:35;14.10;99.90
8565;DHT22;4320;51.498;6.556;2022-10-20T08:06:01;14.10;99.90
8565;DHT22;4320;51.498;6.556;2022-10-20T08:08:27;14.20;99.90
8565;DHT22;4320;51.498;6.556;2022-10-20T08:10:53;14.30;99.90
8565;DHT22;4320;51.498;6.556;2022-10-20T08:13:19;14.30;99.90
8565;DHT22;4320;51.498;6.556;2022-10-20T08:15:45;14.30;99.90
8565;DHT22;4320;51.498;6.556;2022-10-20T08:18:10;14.30;99.90
8565;DHT22;4320;51.498;6.556;2022-10-20T08:20:36;14.40;99.90
8565;DHT22;4320;51.498;6.556;2022-10-20T08:23:02;14.40;99.90
8565;DHT22;4320;51.498;6.556;2022-10-20T08:25:28;14.40;99.90
8565;DHT22;4320;51.498;6.556;2022-10-20T08:27:53;14.40;99.90
8565;DHT22;4320;51.498;6.556;2022-10-20T08:30:19;14.50;99.90
8565;DHT22;4320;51.498;6.556;2022-10-20T08:32:44;14.60;99.90
8565;DHT22;4320;51.498;6.556;2022-10-20T08:35:10;14.60;99.90
8565;DHT22;4320;51.498;6.556;2022-10-20T08:37:36;14.70;99.90
8565;DHT22;4320;51.498;6.556;2022-10-20T08:40:05;14.80;99.90
8565;DHT22;4320;51.498;6.556;2022-10-20T08:42:38;15.10;99.90
8565;DHT22;4320;51.498;6.556;2022-10-20T08:45:06;15.50;99.90
8565;DHT22;4320;51.498;6.556;2022-10-20T08:47:38;15.70;99.90
8565;DHT22;4320;51.498;6.556;2022-10-20T08:50:05;15.70;99.90
8565;DHT22;4320;51.498;6.556;2022-10-20T08:52:33;15.90;99.90
8565;DHT22;4320;51.498;6.556;2022-10-20T08:55:00;16.10;99.90
8565;DHT22;4320;51.498;6.556;2022-10-20T08:57:29;16.10;99.90
8565;DHT22;4320;51.498;6.556;2022-10-20T09:00:07;16.00;99.90
8565;DHT22;4320;51.498;6.556;2022-10-20T09:02:36;15.90;99.90
8565;DHT22;4320;51.498;6.556;2022-10-20T09:05:04;15.80;99.90
8565;DHT22;4320;51.498;6.556;2022-10-20T09:07:34;15.90;99.90
8565;DHT22;4320;51.498;6.556;2022-10-20T09:10:25;15.90;99.90
8565;DHT22;4320;51.498;6.556;2022-10-20T09:12:53;15.80;99.90
8565;DHT22;4320;51.498;6.556;2022-10-20T09:15:20;15.90;99.90
8565;DHT22;4320;51.498;6.556;2022-10-20T09:17:52;16.00;99.90
8565;DHT22;4320;51.498;6.556;2022-10-20T09:20:22;16.00;99.90
8565;DHT22;4320;51.498;6.556;2022-10-20T09:22:48;16.00;99.90
8565;DHT22;4320;51.498;6.556;2022-10-20T09:25:17;15.90;99.90
8565;DHT22;4320;51.498;6.556;2022-10-20T09:27:44;15.80;99.90
8565;DHT22;4320;51.498;6.556;2022-10-20T09:30:19;15.80;99.90
8565;DHT22;4320;51.498;6.556;2022-10-20T09:32:46;15.70;99.90
8565;DHT22;4320;51.498;6.556;2022-10-20T09:35:27;15.60;99.90
8565;DHT22;4320;51.498;6.556;2022-10-20T09:38:04;15.60;99.90
8565;DHT22;4320;51.498;6.556;2022-10-20T09:40:53;15.50;99.90
8565;DHT22;4320;51.498;6.556;2022-10-20T09:43:21;15.50;99.90
8565;DHT22;4320;51.498;6.556;2022-10-20T09:45:51;15.60;99.90
8565;DHT22;4320;51.498;6.556;2022-10-20T09:48:24;15.50;99.90
8565;DHT22;4320;51.498;6.556;2022-10-20T09:50:53;15.50;99.90
8565;DHT22;4320;51.498;6.556;2022-10-20T09:53:27;15.40;99.90
8565;DHT22;4320;51.498;6.556;2022-10-20T09:55:54;15.40;99.90
8565;DHT22;4320;51.498;6.556;2022-10-20T10:01:02;15.50;99.90
8565;DHT22;4320;51.498;6.556;2022-10-20T10:03:41;15.50;99.90
8565;DHT22;4320;51.498;6.556;2022-10-20T10:09:02;15.40;99.90
8565;DHT22;4320;51.498;6.556;2022-10-20T10:11:33;15.50;99.90
8565;DHT22;4320;51.498;6.556;2022-10-20T10:13:59;15.40;99.90
8565;DHT22;4320;51.498;6.556;2022-10-20T10:16:26;15.50;99.90
8565;DHT22;4320;51.498;6.556;2022-10-20T10:18:58;15.50;99.90
8565;DHT22;4320;51.498;6.556;2022-10-20T10:21:27;15.50;99.90
8565;DHT22;4320;51.498;6.556;2022-10-20T10:24:03;15.50;99.90
8565;DHT22;4320;51.498;6.556;2022-10-20T10:26:46;15.60;99.90
8565;DHT22;4320;51.498;6.556;2022-10-20T10:32:00;15.60;99.90
8565;DHT22;4320;51.498;6.556;2022-10-20T10:36:57;15.70;99.90
8565;DHT22;4320;51.498;6.556;2022-10-20T10:39:23;15.70;99.90
8565;DHT22;4320;51.498;6.556;2022-10-20T10:44:54;15.80;99.90
8565;DHT22;4320;51.498;6.556;2022-10-20T10:47:47;15.70;99.90
8565;DHT22;4320;51.498;6.556;2022-10-20T10:50:24;15.70;99.90
8565;DHT22;4320;51.498;6.556;2022-10-20T11:22:36;15.40;99.90
8565;DHT22;4320;51.498;6.556;2022-10-20T11:25:20;15.50;99.90
8565;DHT22;4320;51.498;6.556;2022-10-20T11:27:49;15.40;99.90
8565;DHT22;4320;51.498;6.556;2022-10-20T11:30:19;15.40;99.90
8565;DHT22;4320;51.498;6.556;2022-10-20T11:35:57;15.30;99.90
8565;DHT22;4320;51.498;6.556;2022-10-20T11:41:17;15.10;99.90
8565;DHT22;4320;51.498;6.556;2022-10-20T11:48:58;15.00;99.90
8565;DHT22;4320;51.498;6.556;2022-10-20T11:54:08;14.90;99.90
8565;DHT22;4320;51.498;6.556;2022-10-20T12:05:00;14.50;1.00
8565;DHT22;4320;51.498;6.556;2022-10-20T12:15:49;14.30;1.00
8565;DHT22;4320;51.498;6.556;2022-10-20T12:20:56;14.20;1.00
8565;DHT22;4320;51.498;6.556;2022-10-20T12:26:37;14.10;1.00
8565;DHT22;4320;51.498;6.556;2022-10-20T12:35:25;14.00;1.00
8565;DHT22;4320;51.498;6.556;2022-10-20T12:37:59;14.00;1.00
8565;DHT22;4320;51.498;6.556;2022-10-20T12:40:50;13.90;1.00
8565;DHT22;4320;51.498;6.556;2022-10-20T12:43:46;14.00;1.00
8565;DHT22;4320;51.498;6.556;2022-10-20T12:46:26;14.10;1.00
8565;DHT22;4320;51.498;6.556;2022-10-20T12:48:55;14.10;1.00
8565;DHT22;4320;51.498;6.556;2022-10-20T12:51:37;14.20;1.00
8565;DHT22;4320;51.498;6.556;2022-10-20T12:54:18;14.30;1.00
8565;DHT22;4320;51.498;6.556;2022-10-20T12:56:45;14.40;1.00
8565;DHT22;4320;51.498;6.556;2022-10-20T13:20:58;14.50;1.00
8565;DHT22;4320;51.498;6.556;2022-10-20T13:23:36;14.60;1.00
8565;DHT22;4320;51.498;6.556;2022-10-20T13:26:22;14.60;1.00
8565;DHT22;4320;51.498;6.556;2022-10-20T13:28:49;14.70;1.00
8565;DHT22;4320;51.498;6.556;2022-10-20T13:31:19;14.70;1.00
8565;DHT22;4320;51.498;6.556;2022-10-20T13:34:17;14.70;1.00
8565;DHT22;4320;51.498;6.556;2022-10-20T13:37:04;14.80;1.00
8565;DHT22;4320;51.498;6.556;2022-10-20T13:39:58;14.80;1.00
8565;DHT22;4320;51.498;6.556;2022-10-20T13:45:46;14.90;1.00
8565;DHT22;4320;51.498;6.556;2022-10-20T13:48:33;15.00;1.00
8565;DHT22;4320;51.498;6.556;2022-10-20T13:51:08;15.10;1.00
8565;DHT22;4320;51.498;6.556;2022-10-20T13:53:37;15.30;1.00
8565;DHT22;4320;51.498;6.556;2022-10-20T13:56:15;15.40;1.00
8565;DHT22;4320;51.498;6.556;2022-10-20T13:59:19;15.40;1.00
8565;DHT22;4320;51.498;6.556;2022-10-20T14:02:23;15.50;1.00
8565;DHT22;4320;51.498;6.556;2022-10-20T14:05:06;15.60;1.00
8565;DHT22;4320;51.498;6.556;2022-10-20T14:07:41;15.60;1.00
8565;DHT22;4320;51.498;6.556;2022-10-20T14:13:09;15.70;1.00
8565;DHT22;4320;51.498;6.556;2022-10-20T14:15:37;15.70;1.00
8565;DHT22;4320;51.498;6.556;2022-10-20T14:18:06;15.70;1.00
8565;DHT22;4320;51.498;6.556;2022-10-20T14:20:34;15.70;1.00
8565;DHT22;4320;51.498;6.556;2022-10-20T14:23:04;15.70;1.00
8565;DHT22;4320;51.498;6.556;2022-10-20T14:25:31;15.70;1.00
8565;DHT22;4320;51.498;6.556;2022-10-20T14:27:57;15.70;1.00
8565;DHT22;4320;51.498;6.556;2022-10-20T14:30:23;15.70;1.00
8565;DHT22;4320;51.498;6.556;2022-10-20T14:32:52;15.70;1.00
8565;DHT22;4320;51.498;6.556;2022-10-20T14:40:26;15.70;1.00
8565;DHT22;4320;51.498;6.556;2022-10-20T14:43:00;15.70;1.00
8565;DHT22;4320;51.498;6.556;2022-10-20T14:45:27;15.70;1.00
8565;DHT22;4320;51.498;6.556;2022-10-20T14:47:54;15.80;1.00
8565;DHT22;4320;51.498;6.556;2022-10-20T14:50:44;15.80;1.00
8565;DHT22;4320;51.498;6.556;2022-10-20T14:53:29;15.90;1.00
8565;DHT22;4320;51.498;6.556;2022-10-20T14:55:56;15.90;1.00
8565;DHT22;4320;51.498;6.556;2022-10-20T15:04:27;16.00;1.00
8565;DHT22;4320;51.498;6.556;2022-10-20T15:07:05;16.10;1.00
8565;DHT22;4320;51.498;6.556;2022-10-20T15:12:31;16.10;1.00
8565;DHT22;4320;51.498;6.556;2022-10-20T15:17:39;16.10;1.00
8565;DHT22;4320;51.498;6.556;2022-10-20T15:23:01;16.20;1.00
8565;DHT22;4320;51.498;6.556;2022-10-20T15:25:29;16.20;1.00
8565;DHT22;4320;51.498;6.556;2022-10-20T15:27:56;16.20;1.00
8565;DHT22;4320;51.498;6.556;2022-10-20T15:30:22;16.30;1.00
8565;DHT22;4320;51.498;6.556;2022-10-20T15:32:48;16.30;1.00
8565;DHT22;4320;51.498;6.556;2022-10-20T15:35:17;16.20;1.00
8565;DHT22;4320;51.498;6.556;2022-10-20T15:37:48;16.30;1.00
8565;DHT22;4320;51.498;6.556;2022-10-20T15:40:14;16.30;1.00
8565;DHT22;4320;51.498;6.556;2022-10-20T15:42:39;16.30;1.00
8565;DHT22;4320;51.498;6.556;2022-10-20T15:45:20;16.30;1.00
8565;DHT22;4320;51.498;6.556;2022-10-20T15:47:46;16.30;1.00
8565;DHT22;4320;51.498;6.556;2022-10-20T15:50:12;16.30;1.00
8565;DHT22;4320;51.498;6.556;2022-10-20T15:52:38;16.20;1.00
8565;DHT22;4320;51.498;6.556;2022-10-20T15:57:48;16.20;1.00
8565;DHT22;4320;51.498;6.556;2022-10-20T16:00:14;16.20;1.00
8565;DHT22;4320;51.498;6.556;2022-10-20T16:02:40;16.20;1.00
8565;DHT22;4320;51.498;6.556;2022-10-20T16:05:06;16.10;1.00
8565;DHT22;4320;51.498;6.556;2022-10-20T16:07:32;16.10;1.00
8565;DHT22;4320;51.498;6.556;2022-10-20T16:09:57;16.10;1.00
8565;DHT22;4320;51.498;6.556;2022-10-20T16:12:23;16.10;1.00
8565;DHT22;4320;51.498;6.556;2022-10-20T16:14:50;16.00;1.00
8565;DHT22;4320;51.498;6.556;2022-10-20T16:17:16;16.00;1.00
8565;DHT22;4320;51.498;6.556;2022-10-20T16:19:41;16.10;1.00
8565;DHT22;4320;51.498;6.556;2022-10-20T16:22:07;16.00;1.00
8565;DHT22;4320;51.498;6.556;2022-10-20T16:24:33;16.00;1.00
8565;DHT22;4320;51.498;6.556;2022-10-20T16:26:58;16.00;1.00
8565;DHT22;4320;51.498;6.556;2022-10-20T16:29:24;15.90;1.00
8565;DHT22;4320;51.498;6.556;2022-10-20T16:31:49;15.90;1.00
8565;DHT22;4320;51.498;6.556;2022-10-20T16:34:15;15.90;1.00
8565;DHT22;4320;51.498;6.556;2022-10-20T16:36:41;15.80;1.00
8565;DHT22;4320;51.498;6.556;2022-10-20T16:39:06;15.80;1.00
8565;DHT22;4320;51.498;6.556;2022-10-20T16:41:32;15.80;1.00
8565;DHT22;4320;51.498;6.556;2022-10-20T16:43:58;15.80;1.00
8565;DHT22;4320;51.498;6.556;2022-10-20T16:46:24;15.70;1.00
8565;DHT22;4320;51.498;6.556;2022-10-20T16:48:50;15.70;1.00
8565;DHT22;4320;51.498;6.556;2022-10-20T16:51:16;15.60;1.00
8565;DHT22;4320;51.498;6.556;2022-10-20T16:53:43;15.60;1.00
8565;DHT22;4320;51.498;6.556;2022-10-20T16:56:09;15.60;1.00
8565;DHT22;4320;51.498;6.556;2022-10-20T16:58:35;15.60;1.00
8565;DHT22;4320;51.498;6.556;2022-10-20T17:01:04;15.50;1.00
8565;DHT22;4320;51.498;6.556;2022-10-20T17:03:31;15.50;1.00
8565;DHT22;4320;51.498;6.556;2022-10-20T17:06:02;15.50;1.00
8565;DHT22;4320;51.498;6.556;2022-10-20T17:08:29;15.50;1.00
8565;DHT22;4320;51.498;6.556;2022-10-20T17:11:07;15.40;1.00
8565;DHT22;4320;51.498;6.556;2022-10-20T17:13:35;15.50;1.00
8565;DHT22;4320;51.498;6.556;2022-10-20T17:16:15;15.40;1.00
8565;DHT22;4320;51.498;6.556;2022-10-20T17:18:41;15.40;1.00
8565;DHT22;4320;51.498;6.556;2022-10-20T17:21:08;15.40;1.00
8565;DHT22;4320;51.498;6.556;2022-10-20T17:23:35;15.40;1.00
8565;DHT22;4320;51.498;6.556;2022-10-20T17:26:02;15.40;1.00
8565;DHT22;4320;51.498;6.556;2022-10-20T17:28:28;15.40;1.00
8565;DHT22;4320;51.498;6.556;2022-10-20T17:30:54;15.40;1.00
8565;DHT22;4320;51.498;6.556;2022-10-20T17:33:24;15.40;1.00
8565;DHT22;4320;51.498;6.556;2022-10-20T17:35:52;15.40;1.00
8565;DHT22;4320;51.498;6.556;2022-10-20T17:38:17;15.30;1.00
8565;DHT22;4320;51.498;6.556;2022-10-20T17:40:43;15.30;1.00
8565;DHT22;4320;51.498;6.556;2022-10-20T17:43:09;15.40;1.00
8565;DHT22;4320;51.498;6.556;2022-10-20T17:45:34;15.30;1.00
8565;DHT22;4320;51.498;6.556;2022-10-20T17:48:00;15.30;1.00
8565;DHT22;4320;51.498;6.556;2022-10-20T17:50:25;15.30;1.00
8565;DHT22;4320;51.498;6.556;2022-10-20T17:52:51;15.30;1.00
8565;DHT22;4320;51.498;6.556;2022-10-20T17:55:17;15.40;1.00
8565;DHT22;4320;51.498;6.556;2022-10-20T17:57:43;15.30;1.00
8565;DHT22;4320;51.498;6.556;2022-10-20T18:00:09;15.30;1.00
8565;DHT22;4320;51.498;6.556;2022-10-20T18:02:35;15.30;1.00
8565;DHT22;4320;51.498;6.556;2022-10-20T18:05:01;15.30;1.00
8565;DHT22;4320;51.498;6.556;2022-10-20T18:07:26;15.30;1.00
8565;DHT22;4320;51.498;6.556;2022-10-20T18:09:52;15.30;1.00
8565;DHT22;4320;51.498;6.556;2022-10-20T18:12:18;15.30;1.00
8565;DHT22;4320;51.498;6.556;2022-10-20T18:14:44;15.30;1.00
8565;DHT22;4320;51.498;6.556;2022-10-20T18:17:09;15.40;1.00
8565;DHT22;4320;51.498;6.556;2022-10-20T18:19:35;15.40;1.00
8565;DHT22;4320;51.498;6.556;2022-10-20T18:22:01;15.40;1.00
8565;DHT22;4320;51.498;6.556;2022-10-20T18:24:27;15.40;1.00
8565;DHT22;4320;51.498;6.556;2022-10-20T18:26:53;15.40;1.00
8565;DHT22;4320;51.498;6.556;2022-10-20T18:29:19;15.40;1.00
8565;DHT22;4320;51.498;6.556;2022-10-20T18:31:45;15.40;1.00
8565;DHT22;4320;51.498;6.556;2022-10-20T18:34:14;15.40;1.00
8565;DHT22;4320;51.498;6.556;2022-10-20T18:36:41;15.40;1.00
8565;DHT22;4320;51.498;6.556;2022-10-20T18:39:07;15.40;1.00
8565;DHT22;4320;51.498;6.556;2022-10-20T18:41:36;15.40;1.00
8565;DHT22;4320;51.498;6.556;2022-10-20T18:44:04;15.40;1.00
8565;DHT22;4320;51.498;6.556;2022-10-20T18:46:32;15.40;1.00
8565;DHT22;4320;51.498;6.556;2022-10-20T18:49:00;15.40;1.00
8565;DHT22;4320;51.498;6.556;2022-10-20T18:51:28;15.50;1.00
8565;DHT22;4320;51.498;6.556;2022-10-20T18:53:55;15.40;1.00
8565;DHT22;4320;51.498;6.556;2022-10-20T18:56:22;15.40;1.00
8565;DHT22;4320;51.498;6.556;2022-10-20T18:58:50;15.40;1.00